Metar Cercanos

 

LEPA - Palma De Mallorc, Spain
Distance from station: ONO 38km
Actualización: 17/10/2018 22:00
Few Clouds
Few Clouds
 Viento del NE
Viento: NE 6 km/h
Temperatura: 19°C
Rocío: 16°C
Humedad: 83%
Barómetro: 1012 hPa
Clouds: Few Clouds
Visibility: 10 km
Cloud details: Few Clouds 610 m
Few Clouds 762 m
2018/10/17 20:00 LEPA 172000Z 05003KT 9999 FEW020 FEW025TCU 19/16 Q1012 NOSIG
LEMH - Mahon/Menorca Is, Spain
Distance from station: ENE 105km
Actualización: 17/10/2018 22:00
Muy nuboso
Muy nuboso
 Viento del NE
Viento: NE 19 km/h
Temperatura: 20°C
Rocío: 18°C
Humedad: 88%
Barómetro: 1011 hPa
Clouds: Muy nuboso
Visibility: 10 km
Cloud details: Few Clouds 366 m
Muy nuboso 610 m
2018/10/17 20:00 LEMH 172000Z 04010KT 9999 FEW012TCU BKN020 20/18 Q1011
 
LEIB - Ibiza/Es Codola, Spain
Distance from station: OSO 165km
Actualización: 17/10/2018 22:00
Few Clouds
Few Clouds
 Viento del NNO
Viento: NNO 6 km/h
Temperatura: 19°C
Rocío: 17°C
Humedad: 88%
Barómetro: 1012 hPa
Clouds: Few Clouds
Visibility: 10 km
Cloud details: Few Clouds 549 m
2018/10/17 20:00 LEIB 172000Z 34003KT 250V060 9999 FEW018 19/17 Q1012 NOSIG
LEBL - Barcelona Airpor, Spain
Distance from station: NNO 225km
Actualización: 17/10/2018 22:00
Few Clouds
Few Clouds
 Viento del NE
Viento: NE 7 km/h
Temperatura: 20°C
Rocío: 15°C
Humedad: 73%
Clouds: Few Clouds
Visibility: 10 km
Cloud details: Few Clouds 1067 m
2018/10/17 20:00 LEBL 172000Z 04004KT 010V070 9999 FEW035 20/15 Q101
 
LEVC - Valencia (civ/Mi, Spain
Distance from station: NO 188km
Actualización: 17/10/2018 22:00
Few Clouds
Few Clouds
 Viento del O
Viento: O 6 km/h
Temperatura: 18°C
Rocío: 15°C
Humedad: 83%
Barómetro: 1014 hPa
Clouds: Few Clouds
Visibility: 10 km
Cloud details: Few Clouds 762 m
2018/10/17 20:00 LEVC 172000Z 28003KT 9999 FEW025 18/15 Q1014 NOSIG
LEGE - Gerona/Costa Bra, Spain
Distance from station: N 276km
Actualización: 17/10/2018 22:00
Few Clouds
Few Clouds
 Viento del varies
Viento: varies 4 km/h
Temperatura: 16°C
Rocío: 15°C
Humedad: 94%
Barómetro: 1014 hPa
Clouds: Few Clouds
Visibility: 10 km
Cloud details: Few Clouds 762 m
2018/10/17 20:00 LEGE 172000Z VRB02KT 9999 FEW025 16/15 Q1014
 
LEAL - Alicante/El Alte, Spain
Distance from station: OSO 344km
Actualización: 17/10/2018 22:00
Despejado
Despejado
 Viento del O
Viento: O 7 km/h
Temperatura: 20°C
Rocío: 14°C
Humedad: 69%
Barómetro: 1013 hPa
Resumen: Despejado
Visibility: greater than 10 km
2018/10/17 20:00 LEAL 172000Z 28004KT CAVOK 20/14 Q1013 NOSIG
LEAM - Almeria Airport, Spain
Distance from station: SSO 56km
Actualización: 17/10/2018 22:00
Few Clouds
Few Clouds
 Viento del OSO
Viento: OSO 11 km/h
Temperatura: 19°C
Rocío: 17°C
Humedad: 88%
Barómetro: 1013 hPa
Clouds: Few Clouds
Visibility: 10 km
Cloud details: Few Clouds 366 m
2018/10/17 20:00 LEAM 172000Z 24006KT 200V260 9999 FEW012 19/17 Q1013
 
LEZG - Zaragoza (mil/Ci, Spain
Distance from station: NO 431km
Actualización: 17/10/2018 22:00
Few Clouds
Few Clouds
 Viento del varies
Viento: varies 4 km/h
Temperatura: 16°C
Rocío: 10°C
Humedad: 68%
Barómetro: 1013 hPa
Clouds: Few Clouds
Visibility: 10 km
Cloud details: Few Clouds 2438 m
2018/10/17 20:00 LEZG 172000Z VRB02KT 9999 FEW080 16/10 Q1013
LEMD - Madrid/Barajas, Spain
Distance from station: ONO 234km
Actualización: 17/10/2018 22:00
Despejado
Despejado
 Viento del OSO
Viento: OSO 7 km/h
Temperatura: 19°C
Rocío: 9°C
Humedad: 52%
Barómetro: 1014 hPa
Resumen: Despejado
Visibility: greater than 10 km
2018/10/17 20:00 LEMD 172000Z 24004KT 190V310 CAVOK 19/09 Q1014 NOSIG
 
LEGR - Granada Airport, Spain
Distance from station: OSO 62km
Actualización: 17/10/2018 22:00
Few Clouds
Few Clouds
 Viento del calm
Viento: Calma
Temperatura: 15°C
Rocío: 13°C
Humedad: 88%
Barómetro: 1014 hPa
Clouds: Few Clouds
Visibility: 10 km
Cloud details: Few Clouds 1524 m
2018/10/17 20:00 LEGR 172000Z 00000KT 9999 FEW050 15/13 Q1014
LEMG - Malaga (civ/Mil), Spain
Distance from station: OSO 227km
Actualización: 17/10/2018 22:00
Parcialmente nuboso
Parcialmente nuboso
 Viento del N
Viento: N 7 km/h
Temperatura: 20°C
Rocío: 16°C
Humedad: 78%
Barómetro: 1013 hPa
Clouds: Parcialmente nuboso
Visibility: 10 km
Cloud details: Few Clouds 914 m
Parcialmente nuboso 2438 m
2018/10/17 20:00 LEMG 172000Z 36004KT 9999 FEW030 SCT080 20/16 Q1013 NOSIG
 
LEZL - Sevilla (civ/Mil, Spain
Distance from station: S 318km
Actualización: 17/10/2018 22:00
Despejado
Despejado
 Viento del SO
Viento: SO 9 km/h
Temperatura: 20°C
Rocío: 15°C
Humedad: 73%
Barómetro: 1013 hPa
Resumen: Despejado
Visibility: greater than 10 km
2018/10/17 20:00 LEZL 172000Z 22005KT CAVOK 20/15 Q1013 NOSIG
LEVT - Vitoria, Spain
Distance from station: NO 226km
Actualización: 17/10/2018 22:00
Parcialmente nuboso
Parcialmente nuboso
 Viento del NNE
Viento: NNE 11 km/h
Temperatura: 15°C
Rocío: 13°C
Humedad: 88%
Clouds: Parcialmente nuboso
Visibility: 10 km
Cloud details: Few Clouds 1402 m
Parcialmente nuboso 2195 m
2018/10/17 20:00 LEVT 172000Z 02006KT 9999 FEW046 SCT072 15/13
 
LEBB - Bilbao/Sondica, Spain
Distance from station: NNO 235km
Actualización: 17/10/2018 22:00
Parcialmente nuboso
Parcialmente nuboso
 Viento del calm
Viento: Calma
Temperatura: 16°C
Rocío: 14°C
Humedad: 88%
Barómetro: 1015 hPa
Clouds: Parcialmente nuboso
Visibility: 10 km
Cloud details: Parcialmente nuboso 549 m
2018/10/17 20:00 LEBB 172000Z 00000KT 9999 SCT018 16/14 Q1015 NOSIG
LESO - San Sebastian/Fu, Spain
Distance from station: N 231km
Actualización: 17/10/2018 22:00
Despejado
Despejado
 Viento del S
Viento: S 4 km/h
Temperatura: 15°C
Rocío: 14°C
Humedad: 94%
Barómetro: 1015 hPa
Clouds: Despejado
Visibility: 10 km
2018/10/17 20:00 LESO 172000Z AUTO 17002KT 9999 NCD 15/14 Q1015
 
LEVD - Valladolid(Mil/C, Spain
Distance from station: ONO 239km
Actualización: 17/10/2018 21:30
Despejado
Despejado
 Viento del N
Viento: N 11 km/h
Temperatura: 13°C
Rocío: 7°C
Humedad: 67%
Barómetro: 1014 hPa
Resumen: Despejado
Visibility: greater than 10 km
2018/10/17 19:30 LEVD 171930Z 01006KT CAVOK 13/07 Q1014
LESA - Salamanca (civ/M, Spain
Distance from station: ONO 349km
Actualización: 17/10/2018 22:00
Muy nuboso
Muy nuboso
 Viento del N
Viento: N 9 km/h
Temperatura: 14°C
Rocío: 10°C
Humedad: 77%
Barómetro: 1014 hPa
Clouds: Muy nuboso
Visibility: 10 km
Cloud details: Muy nuboso 1372 m
2018/10/17 20:00 LESA 172000Z AUTO 35005KT 9999 BKN045 14/10 Q1014
 
LEXJ - Santander/Paraya, Spain
Distance from station: NNO 247km
Actualización: 17/10/2018 22:00
Cubierto
Cubierto
 Viento del ENE
Viento: ENE 6 km/h
Temperatura: 17°C
Rocío: 16°C
Humedad: 94%
Barómetro: 1015 hPa
Clouds: Cubierto
Visibility: 7 km
Cloud details: Cubierto 701 m
2018/10/17 20:00 LEXJ 172000Z 06003KT 010V100 7000 OVC023 17/16 Q1015
LEAS - Asturias/Aviles, Spain
Distance from station: NO 214km
Actualización: 17/10/2018 22:00
Mist, Parcialmente nuboso
Mist, Parcialmente nuboso
 Viento del varies
Viento: varies 2 km/h
Temperatura: 14°C
Rocío: 14°C
Humedad: 100%
Barómetro: 1015 hPa
Resumen: Mist
Clouds: Parcialmente nuboso
Visibility: 4 km
Cloud details: Parcialmente nuboso 457 m
Parcialmente nuboso 914 m
2018/10/17 20:00 LEAS 172000Z VRB01KT 3500 BR SCT015 SCT030 14/14 Q1015 TEMPO -RADZ BKN010
 
LECO - La Coruna/Alvedr, Spain
Distance from station: ONO 222km
Actualización: 17/10/2018 22:00
Lluvia, Muy nuboso
Lluvia, Muy nuboso
 Viento del N
Viento: N 11 km/h
Temperatura: 13°C
Rocío: 13°C
Humedad: 100%
Barómetro: 1015 hPa
Resumen: Lluvia
Clouds: Muy nuboso
Visibility: 5 km
Cloud details: Parcialmente nuboso 213 m
Muy nuboso 884 m
2018/10/17 20:00 LECO 172000Z 35006KT 320V030 5000 RA SCT007 BKN029 13/13 Q1015 TEMPO 3000 BR BKN008
LEVX - Vigo/Peinador, Spain
Distance from station: O 214km
Actualización: 17/10/2018 22:00
Patches of fog, Muy nuboso
Patches of fog, Muy nuboso
 Viento del varies
Viento: varies 4 km/h
Temperatura: 13°C
Rocío: 13°C
Humedad: 100%
Barómetro: 1014 hPa
Resumen: Patches of Fog
Clouds: Muy nuboso
Visibility: 3 km
Cloud details: Muy nuboso 61 m
Muy nuboso 671 m
2018/10/17 20:00 LEVX 172000Z VRB02KT 3000 BCFG BKN002 BKN022 13/13 Q1014 TEMPO 1000 BCFG